createdAt,value
2022-12-08T00:00:00.363Z,981.7854
2022-12-08T00:01:00.529Z,981.8216
2022-12-08T00:02:00.741Z,981.8216
2022-12-08T00:03:00.963Z,981.7789
2022-12-08T00:04:00.960Z,981.8201
2022-12-08T00:05:01.339Z,981.7572
2022-12-08T00:07:00.384Z,981.9111
2022-12-08T00:08:00.567Z,981.7985
2022-12-08T00:09:00.648Z,981.9111
2022-12-08T00:10:00.866Z,981.7703
2022-12-08T00:11:00.944Z,981.6878
2022-12-08T00:12:01.136Z,981.625
2022-12-08T00:13:01.233Z,982.1314
2022-12-08T00:14:00.384Z,981.5903
2022-12-08T00:15:00.902Z,981.7527
2022-12-08T00:16:00.671Z,981.7029
2022-12-08T00:17:00.906Z,981.8784
2022-12-08T00:18:00.993Z,981.709
2022-12-08T00:19:01.181Z,981.6597
2022-12-08T00:20:00.270Z,981.6878
2022-12-08T00:21:00.406Z,981.5666
2022-12-08T00:22:00.564Z,981.6511
2022-12-08T00:23:00.711Z,981.5601
2022-12-08T00:24:00.872Z,981.8201
2022-12-08T00:25:01.195Z,981.5484
2022-12-08T00:26:01.153Z,981.7356
2022-12-08T00:27:00.289Z,981.6164
2022-12-08T00:28:00.439Z,981.7074
2022-12-08T00:29:00.607Z,981.8397
2022-12-08T00:30:00.737Z,981.7884
2022-12-08T00:31:00.882Z,981.7321
2022-12-08T00:32:01.118Z,981.5731
2022-12-08T00:33:01.183Z,981.7039
2022-12-08T00:34:00.329Z,981.5701
2022-12-08T00:35:00.734Z,981.7451
2022-12-08T00:36:00.607Z,981.6893
2022-12-08T00:37:00.750Z,981.5912
2022-12-08T00:38:01.215Z,981.5449
2022-12-08T00:39:01.059Z,981.6264
2022-12-08T00:40:01.243Z,981.5912
2022-12-08T00:41:00.348Z,981.6194
2022-12-08T00:42:00.489Z,981.7321
2022-12-08T00:43:00.642Z,981.5449
2022-12-08T00:44:00.784Z,981.6194
2022-12-08T00:45:00.954Z,981.5449
2022-12-08T00:46:01.147Z,981.563
2022-12-08T00:47:01.239Z,981.563
2022-12-08T00:48:00.366Z,981.563
2022-12-08T00:49:00.521Z,981.3758
2022-12-08T00:50:00.779Z,981.563
2022-12-08T00:51:00.816Z,981.4835
2022-12-08T00:52:00.955Z,981.4272
2022-12-08T00:53:01.108Z,981.399
2022-12-08T00:54:01.239Z,981.4358
2022-12-08T00:55:00.404Z,981.5484
2022-12-08T00:56:00.557Z,981.5203
2022-12-08T00:57:00.685Z,981.4986
2022-12-08T00:58:00.830Z,981.3317
2022-12-08T00:59:00.982Z,981.5223
2022-12-08T01:00:01.387Z,981.4313
2022-12-08T01:01:00.364Z,981.544
2022-12-08T01:02:00.425Z,981.5656
2022-12-08T01:03:00.680Z,981.4675
2022-12-08T01:04:00.714Z,981.62
2022-12-08T01:05:00.868Z,981.4892
2022-12-08T01:06:01.007Z,981.5254
2022-12-08T01:07:01.186Z,981.5717
2022-12-08T01:08:00.355Z,981.4279
2022-12-08T01:09:00.450Z,981.4646
2022-12-08T01:10:00.599Z,981.708
2022-12-08T01:11:00.736Z,981.715
2022-12-08T01:12:00.890Z,981.7497
2022-12-08T01:13:01.029Z,981.45
2022-12-08T01:14:01.176Z,981.8121
2022-12-08T01:15:02.503Z,981.8121
2022-12-08T01:16:00.466Z,981.4717
2022-12-08T01:17:00.735Z,981.8121
2022-12-08T01:18:00.764Z,981.4842
2022-12-08T01:19:00.914Z,981.4837
2022-12-08T01:20:01.327Z,981.6426
2022-12-08T01:21:01.206Z,981.3846
2022-12-08T01:22:00.344Z,981.4892
2022-12-08T01:23:00.497Z,981.6265
2022-12-08T01:24:00.654Z,981.5239
2022-12-08T01:25:00.804Z,981.5983
2022-12-08T01:26:00.954Z,981.4957
2022-12-08T01:27:01.091Z,981.5374
2022-12-08T01:28:01.232Z,981.5903
2022-12-08T01:29:00.387Z,981.5656
2022-12-08T01:30:00.705Z,981.5656
2022-12-08T01:31:00.753Z,981.4313
2022-12-08T01:32:00.825Z,981.6245
2022-12-08T01:33:00.977Z,981.4313
2022-12-08T01:34:01.121Z,981.4313
2022-12-08T01:35:00.271Z,981.5656
2022-12-08T01:36:00.426Z,981.3549
2022-12-08T01:37:00.600Z,981.4892
2022-12-08T01:38:00.706Z,981.5918
2022-12-08T01:39:00.864Z,981.3846
2022-12-08T01:40:01.404Z,981.2584
2022-12-08T01:41:01.183Z,981.5536
2022-12-08T01:42:00.336Z,981.4691
2022-12-08T01:43:00.475Z,981.615
2022-12-08T01:44:00.627Z,981.3801
2022-12-08T01:45:00.780Z,981.4023
2022-12-08T01:46:00.946Z,981.3324
2022-12-08T01:47:01.065Z,981.604
2022-12-08T01:48:01.241Z,981.611
2022-12-08T01:49:00.347Z,981.5446
2022-12-08T01:50:00.518Z,981.5446
2022-12-08T01:51:00.629Z,981.5693
2022-12-08T01:52:00.787Z,981.517
2022-12-08T01:53:00.925Z,981.5446
2022-12-08T01:54:01.077Z,981.5693
2022-12-08T01:55:01.252Z,981.5446
2022-12-08T01:56:00.384Z,981.3475
2022-12-08T01:57:00.538Z,981.5099
2022-12-08T01:58:00.682Z,981.3064
2022-12-08T01:59:00.836Z,981.2636
2022-12-08T02:00:01.364Z,981.3199
2022-12-08T02:01:01.199Z,981.4239
2022-12-08T02:02:00.272Z,981.2047
2022-12-08T02:03:00.520Z,981.1831
2022-12-08T02:04:00.538Z,981.1966
2022-12-08T02:05:00.709Z,981.3434
2022-12-08T02:06:00.851Z,981.371
2022-12-08T02:07:05.008Z,981.2589
2022-12-08T02:08:01.256Z,981.4128
2022-12-08T02:09:00.297Z,981.3202
2022-12-08T02:10:00.784Z,981.2639
2022-12-08T02:11:00.611Z,981.2921
2022-12-08T02:12:00.755Z,981.1794
2022-12-08T02:13:00.910Z,981.1296
2022-12-08T02:14:01.067Z,981.297
2022-12-08T02:15:05.099Z,981.3468
2022-12-08T02:16:00.433Z,981.212
2022-12-08T02:17:00.489Z,981.212
2022-12-08T02:18:00.637Z,981.2754
2022-12-08T02:19:29.066Z,981.1541
2022-12-08T02:20:01.037Z,981.2386
2022-12-08T02:21:01.105Z,981.3758
2022-12-08T02:22:01.225Z,981.1737
2022-12-08T02:23:00.393Z,981.2068
2022-12-08T02:24:00.518Z,981.2068
2022-12-08T02:25:00.660Z,981.1575
2022-12-08T02:26:00.812Z,981.1207
2022-12-08T02:27:00.956Z,981.1575
2022-12-08T02:28:01.126Z,981.2963
2022-12-08T02:30:00.455Z,981.0758
2022-12-08T02:31:00.539Z,981.104
2022-12-08T02:32:00.664Z,981.2167
2022-12-08T02:33:00.787Z,981.0758
2022-12-08T02:34:00.927Z,981.104
2022-12-08T02:35:01.085Z,981.0758
2022-12-08T02:36:01.221Z,980.9913
2022-12-08T02:37:00.382Z,981.0536
2022-12-08T02:38:00.531Z,981.1301
2022-12-08T02:39:00.667Z,981.0954
2022-12-08T02:40:01.202Z,981.0883
2022-12-08T02:41:00.960Z,981.1301
2022-12-08T02:42:01.112Z,981.1301
2022-12-08T02:43:00.268Z,981.0883
2022-12-08T02:44:00.411Z,981.0883
2022-12-08T02:45:00.548Z,980.9328
2022-12-08T02:46:00.753Z,981.0536
2022-12-08T02:47:00.869Z,981.0189
2022-12-08T02:48:00.994Z,980.9913
2022-12-08T02:49:01.158Z,980.9913
2022-12-08T02:50:00.286Z,980.9913
2022-12-08T02:51:00.438Z,981.0536
2022-12-08T02:52:00.593Z,981.0883
2022-12-08T02:53:00.739Z,981.0883
2022-12-08T02:54:00.964Z,981.0883
2022-12-08T02:55:01.030Z,980.9913
2022-12-08T02:56:01.176Z,980.9913
2022-12-08T02:57:00.324Z,980.9913
2022-12-08T02:58:00.462Z,980.9913
2022-12-08T02:59:00.623Z,980.9712
2022-12-08T03:00:00.863Z,980.8736
2022-12-08T03:01:00.926Z,980.8817
2022-12-08T03:02:01.162Z,980.9668
2022-12-08T03:03:01.255Z,980.9603
2022-12-08T03:04:00.370Z,981.1575
2022-12-08T03:05:00.505Z,980.9532
2022-12-08T03:06:00.659Z,980.9814
2022-12-08T03:07:00.797Z,980.892
2022-12-08T03:08:01.018Z,980.8226
2022-12-08T03:09:01.108Z,980.9006
2022-12-08T03:11:00.360Z,980.7879
2022-12-08T03:12:00.515Z,980.8659
2022-12-08T03:13:00.665Z,980.9288
2022-12-08T03:14:00.804Z,980.9092
2022-12-08T03:15:00.946Z,980.9786
2022-12-08T03:16:01.152Z,980.8529
2022-12-08T03:17:01.237Z,980.7895
2022-12-08T03:18:00.359Z,980.8399
2022-12-08T03:19:00.514Z,980.8117
2022-12-08T03:20:00.796Z,980.8762
2022-12-08T03:21:00.794Z,980.8762
2022-12-08T03:22:00.960Z,980.9179
2022-12-08T03:23:01.116Z,980.7554
2022-12-08T03:24:01.234Z,980.7554
2022-12-08T03:25:00.383Z,980.7489
2022-12-08T03:26:00.546Z,980.8399
2022-12-08T03:27:00.700Z,980.9525
2022-12-08T03:28:00.862Z,980.6509
2022-12-08T03:29:01.002Z,980.7917
2022-12-08T03:30:01.168Z,980.6444
2022-12-08T03:31:00.334Z,980.679
2022-12-08T03:32:00.442Z,980.7771
2022-12-08T03:33:00.615Z,980.679
2022-12-08T03:34:00.738Z,980.8198
2022-12-08T03:35:00.887Z,980.6162
2022-12-08T03:36:01.040Z,980.7072
2022-12-08T03:37:01.187Z,980.7007
2022-12-08T03:38:00.345Z,980.7852
2022-12-08T03:39:00.481Z,980.6444
2022-12-08T03:40:00.624Z,980.6162
2022-12-08T03:41:00.771Z,980.6926
2022-12-08T03:42:00.908Z,980.7272
2022-12-08T03:43:01.076Z,980.6146
2022-12-08T03:44:01.199Z,980.6509
2022-12-08T03:45:00.344Z,980.7272
2022-12-08T03:46:00.550Z,980.6509
2022-12-08T03:47:00.694Z,980.6509
2022-12-08T03:48:00.803Z,980.7272
2022-12-08T03:49:00.928Z,980.6509
2022-12-08T03:50:01.300Z,980.5101
2022-12-08T03:51:01.230Z,980.5382
2022-12-08T03:52:00.372Z,980.5664
2022-12-08T03:53:00.535Z,980.5799
2022-12-08T03:54:00.673Z,980.5729
2022-12-08T03:55:00.815Z,980.6162
2022-12-08T03:56:00.983Z,980.5036
2022-12-08T03:57:01.129Z,980.6509
2022-12-08T03:58:00.293Z,980.4754
2022-12-08T03:59:00.419Z,980.6509
2022-12-08T04:00:00.739Z,980.6146
2022-12-08T04:01:00.712Z,980.4256
2022-12-08T04:02:01.019Z,980.5382
2022-12-08T04:03:01.087Z,980.411
2022-12-08T04:04:01.196Z,980.5518
2022-12-08T04:05:00.307Z,980.4456
2022-12-08T04:06:00.463Z,980.4256
2022-12-08T04:07:00.605Z,980.3693
2022-12-08T04:08:00.770Z,980.5864
2022-12-08T04:09:00.940Z,980.3693
2022-12-08T04:10:01.283Z,980.3828
2022-12-08T04:11:01.203Z,980.4673
2022-12-08T04:12:00.356Z,980.4673
2022-12-08T04:13:00.501Z,980.3129
2022-12-08T04:14:00.676Z,980.3113
2022-12-08T04:15:00.796Z,980.3958
2022-12-08T04:16:01.012Z,980.3395
2022-12-08T04:17:01.094Z,980.5648
2022-12-08T04:18:01.242Z,980.5642
2022-12-08T04:19:00.401Z,980.5642
2022-12-08T04:20:00.546Z,980.3676
2022-12-08T04:21:00.716Z,980.4803
2022-12-08T04:22:00.842Z,980.5366
2022-12-08T04:23:00.990Z,980.333
2022-12-08T04:24:01.584Z,980.3265
2022-12-08T04:25:00.278Z,980.3546
2022-12-08T04:26:00.444Z,980.5236
2022-12-08T04:27:00.608Z,980.4039
2022-12-08T04:28:00.739Z,980.4256
2022-12-08T04:29:00.882Z,980.3909
2022-12-08T04:30:01.081Z,980.4191
2022-12-08T04:31:01.199Z,980.222
2022-12-08T04:32:00.325Z,980.2783
2022-12-08T04:33:00.493Z,980.3909
2022-12-08T04:34:00.617Z,980.2501
2022-12-08T04:35:00.767Z,980.3346
2022-12-08T04:36:00.921Z,980.2848
2022-12-08T04:37:01.065Z,980.2285
2022-12-08T04:38:01.236Z,980.222
2022-12-08T04:39:00.363Z,980.3411
2022-12-08T04:40:00.516Z,980.2783
2022-12-08T04:41:00.655Z,980.4191
2022-12-08T04:42:00.882Z,980.2783
2022-12-08T04:43:00.978Z,980.4537
2022-12-08T04:44:01.124Z,980.2301
2022-12-08T04:45:00.272Z,980.1684
2022-12-08T04:46:00.427Z,980.2453
2022-12-08T04:47:00.586Z,980.169
2022-12-08T04:48:00.726Z,980.261
2022-12-08T04:49:00.877Z,980.3666
2022-12-08T04:50:01.130Z,980.326
2022-12-08T04:51:01.166Z,980.2626
2022-12-08T04:52:00.331Z,980.1458
2022-12-08T04:53:00.460Z,980.2713
2022-12-08T04:54:00.607Z,980.293
2022-12-08T04:55:00.762Z,980.1122
2022-12-08T04:56:00.902Z,980.1474
2022-12-08T04:57:01.057Z,980.2167
2022-12-08T04:58:01.199Z,980.0646
2022-12-08T04:59:00.352Z,980.023
2022-12-08T05:00:00.494Z,980.0798
2022-12-08T05:01:00.727Z,980.0235
2022-12-08T05:02:01.045Z,980.2124
2022-12-08T05:03:01.076Z,980.2124
2022-12-08T05:04:01.085Z,980.1789
2022-12-08T05:05:01.236Z,980.2963
2022-12-08T05:06:00.373Z,980.2687
2022-12-08T05:07:00.519Z,980.023
2022-12-08T05:08:00.754Z,980.0511
2022-12-08T05:09:00.816Z,980.273
2022-12-08T05:10:01.257Z,980.2367
2022-12-08T05:11:01.111Z,980.3276
2022-12-08T05:13:00.384Z,980.3065
2022-12-08T05:14:00.504Z,980.2697
2022-12-08T05:15:00.659Z,980.0808
2022-12-08T05:16:00.881Z,980.1712
2022-12-08T05:17:04.881Z,980.0304
2022-12-08T05:18:01.132Z,980.1213
2022-12-08T05:19:01.243Z,980.2193
2022-12-08T05:20:00.394Z,980.1847
2022-12-08T05:21:00.549Z,980.0504
2022-12-08T05:22:00.730Z,980.0786
2022-12-08T05:23:00.886Z,980.2734
2022-12-08T05:24:01.016Z,980.0845
2022-12-08T05:25:01.166Z,980.163
2022-12-08T05:26:00.298Z,979.9806
2022-12-08T05:27:00.446Z,980.0369
2022-12-08T05:28:17.957Z,980.0369
2022-12-08T05:29:00.756Z,980.0369
2022-12-08T05:30:01.195Z,980.0022
2022-12-08T05:31:01.044Z,980.1213
2022-12-08T05:32:01.231Z,980.0369
2022-12-08T05:33:00.349Z,980.0867
2022-12-08T05:34:03.123Z,980.1213
2022-12-08T05:35:00.655Z,980.0028
2022-12-08T05:36:00.804Z,980.13
2022-12-08T05:37:00.967Z,980.1717
2022-12-08T05:38:01.114Z,980.0174
2022-12-08T05:39:00.280Z,980.0045
2022-12-08T05:40:00.425Z,980.0889
2022-12-08T05:41:00.562Z,979.9769
2022-12-08T05:42:00.712Z,980.0332
2022-12-08T05:43:00.855Z,980.0613
2022-12-08T05:44:00.998Z,980.1041
2022-12-08T05:45:01.163Z,980.1041
2022-12-08T05:46:00.379Z,980.1322
2022-12-08T05:47:00.428Z,980.1685
2022-12-08T05:48:00.588Z,980.1404
2022-12-08T05:49:00.718Z,980.0148
2022-12-08T05:50:00.939Z,979.9239
2022-12-08T05:51:01.055Z,980.0213
2022-12-08T05:52:01.175Z,979.9802
2022-12-08T05:53:00.339Z,980.1355
2022-12-08T05:54:00.461Z,979.9672
2022-12-08T05:55:00.611Z,980.0598
2022-12-08T05:56:00.754Z,980.0035
2022-12-08T05:57:00.898Z,980.0598
2022-12-08T05:58:06.224Z,980.1442
2022-12-08T05:59:01.178Z,979.9472
2022-12-08T06:00:00.324Z,980.0035
2022-12-08T06:01:00.491Z,980.2768
2022-12-08T06:02:00.749Z,980.1161
2022-12-08T06:03:00.914Z,979.9776
2022-12-08T06:04:00.913Z,980.1161
2022-12-08T06:05:01.072Z,979.9706
2022-12-08T06:06:01.256Z,980.1161
2022-12-08T06:07:00.359Z,980.0317
2022-12-08T06:08:00.546Z,979.865
2022-12-08T06:09:00.656Z,980.1442
2022-12-08T06:10:00.826Z,980.0598
2022-12-08T06:11:01.018Z,980.1161
2022-12-08T06:12:01.117Z,980.0598
2022-12-08T06:13:00.259Z,980.0035
2022-12-08T06:14:00.411Z,980.0879
2022-12-08T06:15:00.567Z,980.2205
2022-12-08T06:16:00.731Z,980.1161
2022-12-08T06:17:00.944Z,979.9706
2022-12-08T06:18:01.001Z,980.1053
2022-12-08T06:19:01.157Z,979.9236
2022-12-08T06:20:00.299Z,979.9987
2022-12-08T06:21:00.469Z,980.1113
2022-12-08T06:22:00.588Z,980.0426
2022-12-08T06:23:00.753Z,979.9863
2022-12-08T06:24:00.888Z,980.1205
2022-12-08T06:25:01.913Z,980.2379
2022-12-08T06:26:01.204Z,980.1
2022-12-08T06:27:00.331Z,980.1
2022-12-08T06:28:00.471Z,980.0161
2022-12-08T06:29:00.648Z,979.9874
2022-12-08T06:30:00.819Z,980.0144
2022-12-08T06:31:00.909Z,980.1675
2022-12-08T06:32:01.127Z,980.0988
2022-12-08T06:33:01.195Z,980.1746
2022-12-08T06:34:00.371Z,980.2768
2022-12-08T06:35:00.494Z,980.1161
2022-12-08T06:36:00.648Z,980.1442
2022-12-08T06:37:00.777Z,980.2205
2022-12-08T06:38:00.929Z,980.2205
2022-12-08T06:39:01.077Z,980.1724
2022-12-08T06:40:01.419Z,980.0902
2022-12-08T06:41:00.396Z,980.3894
2022-12-08T06:42:00.521Z,980.0339
2022-12-08T06:43:00.674Z,980.3331
2022-12-08T06:44:00.821Z,980.3331
2022-12-08T06:45:00.957Z,980.3331
2022-12-08T06:46:01.160Z,980.2487
2022-12-08T06:47:00.268Z,980.2205
2022-12-08T06:48:00.418Z,980.0339
2022-12-08T06:49:00.565Z,980.3049
2022-12-08T06:50:00.721Z,980.1675
2022-12-08T06:51:00.873Z,980.2438
2022-12-08T06:52:01.042Z,979.9928
2022-12-08T06:53:05.109Z,980.2157
2022-12-08T06:54:00.299Z,980.1113
2022-12-08T06:55:00.454Z,979.9863
2022-12-08T06:56:00.595Z,980.0209
2022-12-08T06:57:00.772Z,980.0361
2022-12-08T06:58:00.887Z,980.0724
2022-12-08T06:59:01.033Z,980.0378
2022-12-08T07:00:01.426Z,980.1503
2022-12-08T07:01:00.372Z,980.2412
2022-12-08T07:02:00.500Z,980.2412
2022-12-08T07:03:00.642Z,980.0524
2022-12-08T07:04:00.717Z,979.9832
2022-12-08T07:05:00.871Z,980.1519
2022-12-08T07:06:04.007Z,980.0394
2022-12-08T07:07:01.151Z,980.1179
2022-12-08T07:08:00.366Z,980.0897
2022-12-08T07:09:00.455Z,980.0551
2022-12-08T07:10:00.607Z,980.146
2022-12-08T07:11:00.774Z,979.921
2022-12-08T07:12:00.913Z,980.0205
2022-12-08T07:13:01.079Z,980.0394
2022-12-08T07:14:01.208Z,980.1519
2022-12-08T07:15:00.361Z,980.2282
2022-12-08T07:16:00.512Z,979.9832
2022-12-08T07:17:00.753Z,980.1086
2022-12-08T07:18:00.939Z,980.087
2022-12-08T07:19:00.946Z,979.9961
2022-12-08T07:20:01.440Z,980.1433
2022-12-08T07:21:01.251Z,980.1568
2022-12-08T07:22:00.406Z,979.9598
2022-12-08T07:23:00.573Z,979.9874
2022-12-08T07:24:00.695Z,980.0361
2022-12-08T07:25:00.850Z,980.0707
2022-12-08T07:26:00.997Z,980.2379
2022-12-08T07:27:01.150Z,980.055
2022-12-08T07:28:00.327Z,980.1113
2022-12-08T07:29:00.541Z,980.1675
2022-12-08T07:30:00.599Z,979.9517
2022-12-08T07:31:00.824Z,980.0902
2022-12-08T07:32:00.893Z,980.062
2022-12-08T07:33:01.047Z,980.1442
2022-12-08T07:34:01.208Z,980.0879
2022-12-08T07:35:00.337Z,980.3894
2022-12-08T07:36:00.508Z,980.3331
2022-12-08T07:37:00.639Z,980.1507
2022-12-08T07:38:00.788Z,980.2124
2022-12-08T07:39:00.938Z,980.0928
2022-12-08T07:40:01.308Z,980.1685
2022-12-08T07:41:01.234Z,980.215
2022-12-08T07:42:00.360Z,979.9828
2022-12-08T07:43:00.512Z,980.1777
2022-12-08T07:44:00.654Z,980.0786
2022-12-08T07:45:00.816Z,980.0693
2022-12-08T07:46:00.992Z,980.1803
2022-12-08T07:47:01.103Z,980.2766
2022-12-08T07:49:00.369Z,980.346
2022-12-08T07:50:00.511Z,980.0638
2022-12-08T07:51:00.652Z,979.9858
2022-12-08T07:52:00.811Z,979.9922
2022-12-08T07:53:00.970Z,979.9576
2022-12-08T07:54:01.111Z,980.1444
2022-12-08T07:55:01.244Z,980.1444
2022-12-08T07:56:00.391Z,980.1726
2022-12-08T07:57:00.555Z,979.9543
2022-12-08T07:58:00.701Z,980.0388
2022-12-08T07:59:00.831Z,979.9824
2022-12-08T08:00:01.022Z,980.0366
2022-12-08T08:01:01.325Z,980.0994
2022-12-08T08:02:22.852Z,980.0495
2022-12-08T08:03:00.544Z,980.0777
2022-12-08T08:04:00.585Z,979.9845
2022-12-08T08:05:00.854Z,980.0755
2022-12-08T08:06:00.902Z,980.089
2022-12-08T08:07:01.053Z,980.0955
2022-12-08T08:08:01.323Z,980.2618
2022-12-08T08:09:00.336Z,980.0668
2022-12-08T08:10:00.494Z,980.1215
2022-12-08T08:11:02.757Z,980.0429
2022-12-08T08:12:22.323Z,980.1497
2022-12-08T08:13:00.945Z,980.1274
2022-12-08T08:14:01.085Z,980.2109
2022-12-08T08:15:01.235Z,980
2022-12-08T08:16:00.523Z,980.1263
2022-12-08T08:17:00.669Z,980.1046
2022-12-08T08:18:00.763Z,980.1458
2022-12-08T08:19:00.841Z,980.0613
2022-12-08T08:20:01.012Z,980.2222
2022-12-08T08:21:15.908Z,980.3046
2022-12-08T08:22:00.279Z,980.1436
2022-12-08T08:23:00.420Z,980.0937
2022-12-08T08:24:00.584Z,980.1566
2022-12-08T08:25:00.812Z,980.162
2022-12-08T08:26:00.873Z,980.0574
2022-12-08T08:27:01.020Z,980.1702
2022-12-08T08:28:01.167Z,980.2102
2022-12-08T08:29:00.323Z,980.2379
2022-12-08T08:30:00.450Z,980.2943
2022-12-08T08:31:00.687Z,980.4331
2022-12-08T08:32:00.835Z,980.2943
2022-12-08T08:33:00.910Z,980.3767
2022-12-08T08:34:01.044Z,980.3767
2022-12-08T08:35:01.191Z,980.3767
2022-12-08T08:36:00.373Z,980.1615
2022-12-08T08:37:00.566Z,980.3203
2022-12-08T08:38:00.639Z,980.1338
2022-12-08T08:39:00.870Z,980.3767
2022-12-08T08:40:00.936Z,980.3203
2022-12-08T08:41:01.095Z,980.3203
2022-12-08T08:42:01.222Z,980.3767
2022-12-08T08:43:00.372Z,980.3203
2022-12-08T08:44:00.519Z,980.3203
2022-12-08T08:45:00.659Z,980.3203
2022-12-08T08:46:00.920Z,980.3203
2022-12-08T08:47:00.964Z,980.3203
2022-12-08T08:48:01.099Z,980.2639
2022-12-08T08:49:01.258Z,980.2639
2022-12-08T08:50:00.409Z,980.2709
2022-12-08T08:51:00.549Z,980.3203
2022-12-08T08:52:00.722Z,980.1875
2022-12-08T08:53:00.875Z,980.3203
2022-12-08T08:54:01.004Z,980.2943
2022-12-08T08:55:01.159Z,980.2943
2022-12-08T08:56:02.659Z,980.3767
2022-12-08T08:57:00.438Z,980.3203
2022-12-08T08:58:00.602Z,980.1875
2022-12-08T08:59:00.741Z,980.3203
2022-12-08T09:00:01.056Z,980.2921
2022-12-08T09:01:01.021Z,980.3485
2022-12-08T09:02:01.202Z,980.3203
2022-12-08T09:03:00.319Z,980.4331
2022-12-08T09:04:00.508Z,980.4331
2022-12-08T09:05:00.719Z,980.2492
2022-12-08T09:06:00.859Z,980.2145
2022-12-08T09:07:00.975Z,980.2774
2022-12-08T09:08:01.145Z,980.2492
2022-12-08T09:09:01.206Z,980.2839
2022-12-08T09:10:02.017Z,980.3186
2022-12-08T09:11:00.495Z,980.3533
2022-12-08T09:12:00.657Z,980.4227
2022-12-08T09:13:00.802Z,980.5339
2022-12-08T09:14:00.997Z,980.4298
2022-12-08T09:15:01.100Z,980.0713
2022-12-08T09:16:01.280Z,980.1554
2022-12-08T09:17:00.369Z,980.2237
2022-12-08T09:18:00.527Z,980.2649
2022-12-08T09:19:00.660Z,980.2649
2022-12-08T09:20:00.813Z,980.2367
2022-12-08T09:21:01.004Z,980.2307
2022-12-08T09:22:01.109Z,980.3777
2022-12-08T09:23:00.274Z,980.3083
2022-12-08T09:24:00.411Z,980.3365
2022-12-08T09:25:00.559Z,980.1602
2022-12-08T09:26:00.710Z,980.1103
2022-12-08T09:27:00.867Z,980.2367
2022-12-08T09:28:01.071Z,980.3278
2022-12-08T09:29:01.170Z,980.0979
2022-12-08T09:30:00.318Z,980.1385
2022-12-08T09:31:00.524Z,980.1515
2022-12-08T09:32:00.625Z,980.0105
2022-12-08T09:33:00.778Z,980.1369
2022-12-08T09:34:00.889Z,980.0017
2022-12-08T09:35:01.071Z,980.0864
2022-12-08T09:36:01.180Z,979.9936
2022-12-08T09:37:00.330Z,980.1325
2022-12-08T09:38:00.493Z,980.0743
2022-12-08T09:39:00.650Z,980.0244
2022-12-08T09:40:00.786Z,980.0244
2022-12-08T09:41:00.935Z,980.0526
2022-12-08T09:42:01.100Z,980.0445
2022-12-08T09:43:01.252Z,980.0939
2022-12-08T09:44:00.406Z,980.1009
2022-12-08T09:45:00.551Z,979.994
2022-12-08T09:46:00.748Z,979.9381
2022-12-08T09:47:00.929Z,980.014
2022-12-08T09:48:00.982Z,980.0683
2022-12-08T09:49:01.128Z,979.9901
2022-12-08T09:50:00.283Z,979.9836
2022-12-08T09:51:00.425Z,979.9271
2022-12-08T09:52:00.581Z,980.053
2022-12-08T09:53:00.717Z,979.9254
2022-12-08T09:54:00.862Z,980.0748
2022-12-08T09:55:01.043Z,979.9966
2022-12-08T09:56:01.181Z,979.9325
2022-12-08T09:57:00.340Z,980.0237
2022-12-08T09:58:00.475Z,979.9607
2022-12-08T09:59:00.623Z,980.1078
2022-12-08T10:00:00.744Z,979.9514
2022-12-08T10:01:00.904Z,979.9862
2022-12-08T10:02:01.216Z,979.9862
2022-12-08T10:03:01.187Z,979.882
2022-12-08T10:04:00.331Z,979.9797
2022-12-08T10:05:00.530Z,979.8643
2022-12-08T10:06:00.612Z,979.9514
2022-12-08T10:07:00.779Z,979.889
2022-12-08T10:08:01.015Z,979.9172
2022-12-08T10:09:01.071Z,979.9514
2022-12-08T10:10:01.286Z,979.882
2022-12-08T10:11:00.354Z,979.9514
2022-12-08T10:12:00.500Z,979.6731
2022-12-08T10:13:00.672Z,979.6943
2022-12-08T10:14:00.818Z,979.889
2022-12-08T10:15:00.954Z,979.8643
2022-12-08T10:16:01.226Z,979.6102
2022-12-08T10:17:01.406Z,979.5943
2022-12-08T10:18:00.390Z,979.5661
2022-12-08T10:19:00.568Z,979.7768
2022-12-08T10:20:00.730Z,979.655
2022-12-08T10:21:00.822Z,979.8033
2022-12-08T10:22:00.987Z,979.844
2022-12-08T10:23:01.124Z,979.7158
2022-12-08T10:24:00.264Z,979.6028
2022-12-08T10:25:00.423Z,979.6316
2022-12-08T10:26:00.570Z,979.5745
2022-12-08T10:27:00.726Z,979.6028
2022-12-08T10:28:00.859Z,979.5969
2022-12-08T10:29:01.015Z,979.5745
2022-12-08T10:30:01.319Z,979.7576
2022-12-08T10:31:00.368Z,979.5251
2022-12-08T10:32:00.525Z,979.5734
2022-12-08T10:33:00.617Z,979.5169
2022-12-08T10:34:00.742Z,979.5404
2022-12-08T10:35:00.886Z,979.5333
2022-12-08T10:36:01.028Z,979.5469
2022-12-08T10:37:01.173Z,979.5969
2022-12-08T10:38:00.336Z,979.4768
2022-12-08T10:39:00.491Z,979.4839
2022-12-08T10:40:00.610Z,979.5333
2022-12-08T10:41:00.763Z,979.6028
2022-12-08T10:42:00.901Z,979.5181
2022-12-08T10:43:01.074Z,979.4969
2022-12-08T10:44:01.227Z,979.5463
2022-12-08T10:45:01.407Z,979.4898
2022-12-08T10:46:00.531Z,979.3639
2022-12-08T10:47:00.758Z,979.4486
2022-12-08T10:48:00.798Z,979.5703
2022-12-08T10:49:00.960Z,979.3356
2022-12-08T10:50:01.232Z,979.2226
2022-12-08T10:51:01.282Z,979.3709
2022-12-08T10:52:00.405Z,979.3556
2022-12-08T10:53:00.554Z,979.3768
2022-12-08T10:54:00.747Z,979.2774
2022-12-08T10:55:00.891Z,979.4734
2022-12-08T10:56:01.037Z,979.4451
2022-12-08T10:57:01.165Z,979.4934
2022-12-08T10:58:00.293Z,979.3434
2022-12-08T10:59:00.440Z,979.5129
2022-12-08T11:00:00.606Z,979.4694
2022-12-08T11:01:00.806Z,979.4129
2022-12-08T11:02:01.065Z,979.3216
2022-12-08T11:03:01.119Z,979.3911
2022-12-08T11:04:01.190Z,979.4541
2022-12-08T11:05:00.384Z,979.2693
2022-12-08T11:06:05.387Z,979.3041
2022-12-08T11:07:00.622Z,979.191
2022-12-08T11:08:00.853Z,979.3371
2022-12-08T11:09:00.901Z,979.2805
2022-12-08T11:10:01.076Z,979.4501
2022-12-08T11:11:01.235Z,979.4501
2022-12-08T11:12:00.345Z,979.4501
2022-12-08T11:13:00.483Z,979.4784
2022-12-08T11:14:00.647Z,979.4501
2022-12-08T11:15:00.778Z,979.3371
2022-12-08T11:16:00.977Z,979.3823
2022-12-08T11:17:01.202Z,979.2628
2022-12-08T11:18:01.238Z,979.2346
2022-12-08T11:19:00.377Z,979.2781
2022-12-08T11:20:00.524Z,979.2499
2022-12-08T11:21:00.664Z,979.3476
2022-12-08T11:22:00.819Z,979.3564
2022-12-08T11:23:00.975Z,979.3216
2022-12-08T11:24:01.118Z,979.2086
2022-12-08T11:25:00.256Z,979.2716
2022-12-08T11:26:00.418Z,979.2434
2022-12-08T11:27:00.579Z,979.2499
2022-12-08T11:28:00.751Z,979.3911
2022-12-08T11:29:00.894Z,979.1651
2022-12-08T11:30:01.009Z,979.3258
2022-12-08T11:31:01.156Z,979.2693
2022-12-08T11:32:00.382Z,979.2128
2022-12-08T11:33:00.455Z,979.2693
2022-12-08T11:34:00.632Z,979.1781
2022-12-08T11:35:00.760Z,979.1515
2022-12-08T11:36:00.910Z,979.2151
2022-12-08T11:37:01.062Z,979.0956
2022-12-08T11:38:19.804Z,979.3216
2022-12-08T11:39:00.380Z,979.3564
2022-12-08T11:40:00.509Z,979.2369
2022-12-08T11:41:00.656Z,979.2434
2022-12-08T11:42:00.805Z,979.128
2022-12-08T11:43:00.991Z,979.2128
2022-12-08T11:44:01.099Z,979.2193
2022-12-08T11:45:01.249Z,979.2128
2022-12-08T11:46:00.493Z,979.1563
2022-12-08T11:47:00.541Z,979.3371
2022-12-08T11:48:00.693Z,979.224
2022-12-08T11:49:05.855Z,979.224
2022-12-08T11:50:01.151Z,979.224
2022-12-08T11:51:01.146Z,979.3006